sensor_id;sensor_type;location;lat;lon;timestamp;P1;durP1;ratioP1;P2;durP2;ratioP2
6029;SDS011;3043;42.682;23.376;2022-07-01T00:00:00;10.17;;;6.70;;
6029;SDS011;3043;42.682;23.376;2022-07-01T00:02:25;11.13;;;7.27;;
6029;SDS011;3043;42.682;23.376;2022-07-01T00:04:51;17.07;;;9.17;;
6029;SDS011;3043;42.682;23.376;2022-07-01T00:07:17;13.17;;;9.30;;
6029;SDS011;3043;42.682;23.376;2022-07-01T00:09:43;14.83;;;9.57;;
6029;SDS011;3043;42.682;23.376;2022-07-01T00:12:08;16.00;;;11.27;;
6029;SDS011;3043;42.682;23.376;2022-07-01T00:14:34;15.27;;;10.90;;
6029;SDS011;3043;42.682;23.376;2022-07-01T00:16:59;15.07;;;9.73;;
6029;SDS011;3043;42.682;23.376;2022-07-01T00:19:25;11.67;;;8.27;;
6029;SDS011;3043;42.682;23.376;2022-07-01T00:21:51;11.50;;;8.50;;
6029;SDS011;3043;42.682;23.376;2022-07-01T00:24:17;12.77;;;7.37;;
6029;SDS011;3043;42.682;23.376;2022-07-01T00:26:42;9.63;;;6.20;;
6029;SDS011;3043;42.682;23.376;2022-07-01T00:29:08;12.03;;;7.03;;
6029;SDS011;3043;42.682;23.376;2022-07-01T00:31:34;9.20;;;6.43;;
6029;SDS011;3043;42.682;23.376;2022-07-01T00:34:00;8.90;;;6.33;;
6029;SDS011;3043;42.682;23.376;2022-07-01T00:36:26;9.57;;;5.97;;
6029;SDS011;3043;42.682;23.376;2022-07-01T00:38:51;10.93;;;6.10;;
6029;SDS011;3043;42.682;23.376;2022-07-01T00:41:17;11.53;;;5.77;;
6029;SDS011;3043;42.682;23.376;2022-07-01T00:43:42;8.87;;;5.37;;
6029;SDS011;3043;42.682;23.376;2022-07-01T00:46:07;8.53;;;5.27;;
6029;SDS011;3043;42.682;23.376;2022-07-01T00:48:33;9.80;;;5.37;;
6029;SDS011;3043;42.682;23.376;2022-07-01T00:51:01;9.80;;;5.97;;
6029;SDS011;3043;42.682;23.376;2022-07-01T00:53:27;8.37;;;5.33;;
6029;SDS011;3043;42.682;23.376;2022-07-01T00:55:53;9.30;;;5.40;;
6029;SDS011;3043;42.682;23.376;2022-07-01T00:58:18;8.87;;;5.07;;
6029;SDS011;3043;42.682;23.376;2022-07-01T01:00:44;9.47;;;5.00;;
6029;SDS011;3043;42.682;23.376;2022-07-01T01:03:09;8.07;;;5.50;;
6029;SDS011;3043;42.682;23.376;2022-07-01T01:05:39;8.80;;;5.23;;
6029;SDS011;3043;42.682;23.376;2022-07-01T01:08:06;9.53;;;5.80;;
6029;SDS011;3043;42.682;23.376;2022-07-01T01:10:35;11.07;;;5.40;;
6029;SDS011;3043;42.682;23.376;2022-07-01T01:13:01;10.40;;;5.50;;
6029;SDS011;3043;42.682;23.376;2022-07-01T01:15:27;9.07;;;5.67;;
6029;SDS011;3043;42.682;23.376;2022-07-01T01:17:54;9.07;;;5.73;;
6029;SDS011;3043;42.682;23.376;2022-07-01T01:20:19;9.00;;;5.90;;
6029;SDS011;3043;42.682;23.376;2022-07-01T01:22:45;11.77;;;5.77;;
6029;SDS011;3043;42.682;23.376;2022-07-01T01:25:11;7.50;;;5.53;;
6029;SDS011;3043;42.682;23.376;2022-07-01T01:27:37;8.27;;;5.73;;
6029;SDS011;3043;42.682;23.376;2022-07-01T01:30:04;18.63;;;14.60;;
6029;SDS011;3043;42.682;23.376;2022-07-01T01:32:30;12.10;;;7.60;;
6029;SDS011;3043;42.682;23.376;2022-07-01T01:34:55;8.03;;;5.00;;
6029;SDS011;3043;42.682;23.376;2022-07-01T01:37:21;8.03;;;5.20;;
6029;SDS011;3043;42.682;23.376;2022-07-01T01:39:46;8.77;;;5.37;;
6029;SDS011;3043;42.682;23.376;2022-07-01T01:42:12;10.80;;;5.80;;
6029;SDS011;3043;42.682;23.376;2022-07-01T01:44:37;9.33;;;5.60;;
6029;SDS011;3043;42.682;23.376;2022-07-01T01:47:03;9.27;;;6.10;;
6029;SDS011;3043;42.682;23.376;2022-07-01T01:49:28;9.50;;;5.57;;
6029;SDS011;3043;42.682;23.376;2022-07-01T01:51:54;7.37;;;5.23;;
6029;SDS011;3043;42.682;23.376;2022-07-01T01:54:21;7.67;;;5.47;;
6029;SDS011;3043;42.682;23.376;2022-07-01T01:56:46;9.27;;;5.43;;
6029;SDS011;3043;42.682;23.376;2022-07-01T01:59:12;9.03;;;5.53;;
6029;SDS011;3043;42.682;23.376;2022-07-01T02:01:37;9.73;;;5.90;;
6029;SDS011;3043;42.682;23.376;2022-07-01T02:04:03;11.10;;;6.13;;
6029;SDS011;3043;42.682;23.376;2022-07-01T02:06:28;9.00;;;6.07;;
6029;SDS011;3043;42.682;23.376;2022-07-01T02:08:54;13.63;;;6.87;;
6029;SDS011;3043;42.682;23.376;2022-07-01T02:11:19;9.83;;;6.33;;
6029;SDS011;3043;42.682;23.376;2022-07-01T02:13:45;8.67;;;6.17;;
6029;SDS011;3043;42.682;23.376;2022-07-01T02:16:10;10.80;;;6.37;;
6029;SDS011;3043;42.682;23.376;2022-07-01T02:18:36;8.43;;;5.23;;
6029;SDS011;3043;42.682;23.376;2022-07-01T02:21:02;10.57;;;6.50;;
6029;SDS011;3043;42.682;23.376;2022-07-01T02:23:27;9.23;;;6.73;;
6029;SDS011;3043;42.682;23.376;2022-07-01T02:25:54;12.63;;;7.30;;
6029;SDS011;3043;42.682;23.376;2022-07-01T02:28:20;12.93;;;7.03;;
6029;SDS011;3043;42.682;23.376;2022-07-01T02:30:46;12.63;;;7.33;;
6029;SDS011;3043;42.682;23.376;2022-07-01T02:33:11;11.70;;;8.57;;
6029;SDS011;3043;42.682;23.376;2022-07-01T02:35:38;15.33;;;8.90;;
6029;SDS011;3043;42.682;23.376;2022-07-01T02:38:06;14.77;;;9.00;;
6029;SDS011;3043;42.682;23.376;2022-07-01T02:40:32;14.60;;;9.23;;
6029;SDS011;3043;42.682;23.376;2022-07-01T02:42:59;12.40;;;9.03;;
6029;SDS011;3043;42.682;23.376;2022-07-01T02:45:25;11.93;;;8.13;;
6029;SDS011;3043;42.682;23.376;2022-07-01T02:47:50;14.17;;;9.63;;
6029;SDS011;3043;42.682;23.376;2022-07-01T02:50:18;14.13;;;8.80;;
6029;SDS011;3043;42.682;23.376;2022-07-01T02:52:44;14.20;;;9.17;;
6029;SDS011;3043;42.682;23.376;2022-07-01T02:55:10;17.13;;;9.47;;
6029;SDS011;3043;42.682;23.376;2022-07-01T02:57:39;15.80;;;9.10;;
6029;SDS011;3043;42.682;23.376;2022-07-01T03:00:05;13.53;;;9.50;;
6029;SDS011;3043;42.682;23.376;2022-07-01T03:02:36;15.30;;;9.87;;
6029;SDS011;3043;42.682;23.376;2022-07-01T03:05:01;16.73;;;10.00;;
6029;SDS011;3043;42.682;23.376;2022-07-01T03:07:27;15.30;;;9.63;;
6029;SDS011;3043;42.682;23.376;2022-07-01T03:09:53;15.63;;;9.60;;
6029;SDS011;3043;42.682;23.376;2022-07-01T03:12:18;13.80;;;8.87;;
6029;SDS011;3043;42.682;23.376;2022-07-01T03:15:00;11.80;;;9.30;;
6029;SDS011;3043;42.682;23.376;2022-07-01T03:17:30;13.67;;;9.53;;
6029;SDS011;3043;42.682;23.376;2022-07-01T03:19:57;13.43;;;8.77;;
6029;SDS011;3043;42.682;23.376;2022-07-01T03:22:23;18.70;;;10.60;;
6029;SDS011;3043;42.682;23.376;2022-07-01T03:24:51;16.87;;;9.67;;
6029;SDS011;3043;42.682;23.376;2022-07-01T03:27:17;15.50;;;10.40;;
6029;SDS011;3043;42.682;23.376;2022-07-01T03:29:43;12.13;;;9.87;;
6029;SDS011;3043;42.682;23.376;2022-07-01T03:32:09;18.63;;;10.23;;
6029;SDS011;3043;42.682;23.376;2022-07-01T03:34:36;18.13;;;10.10;;
6029;SDS011;3043;42.682;23.376;2022-07-01T03:37:06;18.03;;;9.73;;
6029;SDS011;3043;42.682;23.376;2022-07-01T03:39:32;18.43;;;9.30;;
6029;SDS011;3043;42.682;23.376;2022-07-01T03:41:59;14.33;;;9.63;;
6029;SDS011;3043;42.682;23.376;2022-07-01T03:44:25;17.83;;;9.33;;
6029;SDS011;3043;42.682;23.376;2022-07-01T03:46:50;14.67;;;9.03;;
6029;SDS011;3043;42.682;23.376;2022-07-01T03:49:16;16.73;;;9.50;;
6029;SDS011;3043;42.682;23.376;2022-07-01T03:51:41;15.30;;;8.27;;
6029;SDS011;3043;42.682;23.376;2022-07-01T03:54:07;14.93;;;8.50;;
6029;SDS011;3043;42.682;23.376;2022-07-01T03:56:59;13.07;;;8.60;;
6029;SDS011;3043;42.682;23.376;2022-07-01T03:59:25;15.70;;;9.17;;
6029;SDS011;3043;42.682;23.376;2022-07-01T04:01:55;17.93;;;9.53;;
6029;SDS011;3043;42.682;23.376;2022-07-01T04:04:21;18.93;;;9.30;;
6029;SDS011;3043;42.682;23.376;2022-07-01T04:06:48;14.27;;;8.90;;
6029;SDS011;3043;42.682;23.376;2022-07-01T04:09:15;15.57;;;8.27;;
6029;SDS011;3043;42.682;23.376;2022-07-01T04:11:41;12.52;;;8.70;;
6029;SDS011;3043;42.682;23.376;2022-07-01T04:14:08;11.20;;;8.60;;
6029;SDS011;3043;42.682;23.376;2022-07-01T04:16:34;16.27;;;8.50;;
6029;SDS011;3043;42.682;23.376;2022-07-01T04:19:00;11.88;;;8.02;;
6029;SDS011;3043;42.682;23.376;2022-07-01T04:21:26;11.63;;;8.75;;
6029;SDS011;3043;42.682;23.376;2022-07-01T04:24:10;14.10;;;8.13;;
6029;SDS011;3043;42.682;23.376;2022-07-01T04:26:35;16.55;;;9.80;;
6029;SDS011;3043;42.682;23.376;2022-07-01T04:29:01;18.77;;;9.68;;
6029;SDS011;3043;42.682;23.376;2022-07-01T04:31:27;17.70;;;11.45;;
6029;SDS011;3043;42.682;23.376;2022-07-01T04:33:53;16.98;;;11.35;;
6029;SDS011;3043;42.682;23.376;2022-07-01T04:36:18;15.13;;;12.25;;
6029;SDS011;3043;42.682;23.376;2022-07-01T04:38:44;18.30;;;11.52;;
6029;SDS011;3043;42.682;23.376;2022-07-01T04:41:09;19.02;;;11.38;;
6029;SDS011;3043;42.682;23.376;2022-07-01T04:43:53;17.60;;;10.55;;
6029;SDS011;3043;42.682;23.376;2022-07-01T04:46:19;19.92;;;10.57;;
6029;SDS011;3043;42.682;23.376;2022-07-01T04:48:44;16.02;;;9.75;;
6029;SDS011;3043;42.682;23.376;2022-07-01T04:51:10;14.48;;;9.65;;
6029;SDS011;3043;42.682;23.376;2022-07-01T04:53:35;14.65;;;9.57;;
6029;SDS011;3043;42.682;23.376;2022-07-01T04:56:00;12.70;;;9.68;;
6029;SDS011;3043;42.682;23.376;2022-07-01T04:58:26;14.60;;;9.45;;
6029;SDS011;3043;42.682;23.376;2022-07-01T05:00:51;11.68;;;9.13;;
6029;SDS011;3043;42.682;23.376;2022-07-01T05:03:17;13.75;;;9.48;;
6029;SDS011;3043;42.682;23.376;2022-07-01T05:05:43;11.82;;;8.88;;
6029;SDS011;3043;42.682;23.376;2022-07-01T05:08:08;11.73;;;9.05;;
6029;SDS011;3043;42.682;23.376;2022-07-01T05:10:34;12.45;;;8.30;;
6029;SDS011;3043;42.682;23.376;2022-07-01T05:12:59;15.00;;;9.18;;
6029;SDS011;3043;42.682;23.376;2022-07-01T05:15:25;14.32;;;9.07;;
6029;SDS011;3043;42.682;23.376;2022-07-01T05:17:50;11.75;;;9.35;;
6029;SDS011;3043;42.682;23.376;2022-07-01T05:20:34;14.02;;;10.20;;
6029;SDS011;3043;42.682;23.376;2022-07-01T05:23:18;14.73;;;9.68;;
6029;SDS011;3043;42.682;23.376;2022-07-01T05:25:44;13.30;;;10.02;;
6029;SDS011;3043;42.682;23.376;2022-07-01T05:28:09;20.40;;;9.57;;
6029;SDS011;3043;42.682;23.376;2022-07-01T05:30:35;13.32;;;9.10;;
6029;SDS011;3043;42.682;23.376;2022-07-01T05:33:00;15.32;;;8.73;;
6029;SDS011;3043;42.682;23.376;2022-07-01T05:35:25;14.65;;;8.50;;
6029;SDS011;3043;42.682;23.376;2022-07-01T05:37:51;13.82;;;9.75;;
6029;SDS011;3043;42.682;23.376;2022-07-01T05:40:16;15.27;;;9.57;;
6029;SDS011;3043;42.682;23.376;2022-07-01T05:42:42;12.25;;;9.05;;
6029;SDS011;3043;42.682;23.376;2022-07-01T05:45:08;13.32;;;8.63;;
6029;SDS011;3043;42.682;23.376;2022-07-01T05:47:33;16.10;;;8.85;;
6029;SDS011;3043;42.682;23.376;2022-07-01T05:49:59;14.27;;;8.75;;
6029;SDS011;3043;42.682;23.376;2022-07-01T05:52:24;14.00;;;9.10;;
6029;SDS011;3043;42.682;23.376;2022-07-01T05:54:50;12.73;;;9.02;;
6029;SDS011;3043;42.682;23.376;2022-07-01T05:57:15;12.20;;;10.15;;
6029;SDS011;3043;42.682;23.376;2022-07-01T05:59:41;12.63;;;8.90;;
6029;SDS011;3043;42.682;23.376;2022-07-01T06:02:06;16.02;;;9.15;;
6029;SDS011;3043;42.682;23.376;2022-07-01T06:04:32;12.52;;;9.88;;
6029;SDS011;3043;42.682;23.376;2022-07-01T06:06:58;13.02;;;9.73;;
6029;SDS011;3043;42.682;23.376;2022-07-01T06:09:24;12.48;;;9.27;;
6029;SDS011;3043;42.682;23.376;2022-07-01T06:11:49;13.20;;;8.85;;
6029;SDS011;3043;42.682;23.376;2022-07-01T06:14:15;12.23;;;8.52;;
6029;SDS011;3043;42.682;23.376;2022-07-01T06:16:40;15.35;;;9.20;;
6029;SDS011;3043;42.682;23.376;2022-07-01T06:19:06;17.10;;;9.05;;
6029;SDS011;3043;42.682;23.376;2022-07-01T06:21:31;13.25;;;8.98;;
6029;SDS011;3043;42.682;23.376;2022-07-01T06:23:57;12.68;;;8.73;;
6029;SDS011;3043;42.682;23.376;2022-07-01T06:26:23;14.57;;;11.20;;
6029;SDS011;3043;42.682;23.376;2022-07-01T06:28:48;14.50;;;9.23;;
6029;SDS011;3043;42.682;23.376;2022-07-01T06:31:14;13.88;;;8.45;;
6029;SDS011;3043;42.682;23.376;2022-07-01T06:33:39;12.82;;;8.77;;
6029;SDS011;3043;42.682;23.376;2022-07-01T06:36:05;14.45;;;8.43;;
6029;SDS011;3043;42.682;23.376;2022-07-01T06:38:30;11.43;;;7.72;;
6029;SDS011;3043;42.682;23.376;2022-07-01T06:40:56;15.27;;;8.07;;
6029;SDS011;3043;42.682;23.376;2022-07-01T06:43:40;11.63;;;7.75;;
6029;SDS011;3043;42.682;23.376;2022-07-01T06:46:05;16.45;;;7.68;;
6029;SDS011;3043;42.682;23.376;2022-07-01T06:48:31;11.57;;;7.90;;
6029;SDS011;3043;42.682;23.376;2022-07-01T06:50:56;12.15;;;7.97;;
6029;SDS011;3043;42.682;23.376;2022-07-01T06:53:22;12.50;;;7.80;;
6029;SDS011;3043;42.682;23.376;2022-07-01T06:55:47;13.18;;;8.23;;
6029;SDS011;3043;42.682;23.376;2022-07-01T06:58:13;10.35;;;7.53;;
6029;SDS011;3043;42.682;23.376;2022-07-01T07:00:38;9.68;;;7.40;;
6029;SDS011;3043;42.682;23.376;2022-07-01T07:03:04;10.68;;;7.80;;
6029;SDS011;3043;42.682;23.376;2022-07-01T07:05:29;13.23;;;7.10;;
6029;SDS011;3043;42.682;23.376;2022-07-01T07:07:56;13.82;;;7.47;;
6029;SDS011;3043;42.682;23.376;2022-07-01T07:10:22;10.65;;;7.25;;
6029;SDS011;3043;42.682;23.376;2022-07-01T07:12:48;12.23;;;7.47;;
6029;SDS011;3043;42.682;23.376;2022-07-01T07:15:13;12.52;;;7.00;;
6029;SDS011;3043;42.682;23.376;2022-07-01T07:17:39;11.73;;;7.30;;
6029;SDS011;3043;42.682;23.376;2022-07-01T07:20:04;11.10;;;6.65;;
6029;SDS011;3043;42.682;23.376;2022-07-01T07:22:30;10.15;;;6.82;;
6029;SDS011;3043;42.682;23.376;2022-07-01T07:24:56;13.35;;;7.50;;
6029;SDS011;3043;42.682;23.376;2022-07-01T07:27:21;13.75;;;7.55;;
6029;SDS011;3043;42.682;23.376;2022-07-01T07:29:47;10.75;;;7.00;;
6029;SDS011;3043;42.682;23.376;2022-07-01T07:32:12;12.00;;;6.93;;
6029;SDS011;3043;42.682;23.376;2022-07-01T07:34:38;11.98;;;7.38;;
6029;SDS011;3043;42.682;23.376;2022-07-01T07:37:04;13.48;;;7.07;;
6029;SDS011;3043;42.682;23.376;2022-07-01T07:39:32;11.68;;;7.03;;
6029;SDS011;3043;42.682;23.376;2022-07-01T07:41:58;13.68;;;7.70;;
6029;SDS011;3043;42.682;23.376;2022-07-01T07:44:24;12.23;;;7.47;;
6029;SDS011;3043;42.682;23.376;2022-07-01T07:46:49;9.60;;;6.82;;
6029;SDS011;3043;42.682;23.376;2022-07-01T07:49:15;13.23;;;6.95;;
6029;SDS011;3043;42.682;23.376;2022-07-01T07:51:40;14.80;;;6.78;;
6029;SDS011;3043;42.682;23.376;2022-07-01T07:54:06;9.68;;;7.13;;
6029;SDS011;3043;42.682;23.376;2022-07-01T07:56:31;11.73;;;6.82;;
6029;SDS011;3043;42.682;23.376;2022-07-01T07:58:57;10.07;;;6.40;;
6029;SDS011;3043;42.682;23.376;2022-07-01T08:01:22;12.05;;;7.30;;
6029;SDS011;3043;42.682;23.376;2022-07-01T08:03:48;14.75;;;7.82;;
6029;SDS011;3043;42.682;23.376;2022-07-01T08:06:13;13.75;;;7.22;;
6029;SDS011;3043;42.682;23.376;2022-07-01T08:08:39;13.52;;;7.38;;
6029;SDS011;3043;42.682;23.376;2022-07-01T08:11:05;12.30;;;7.30;;
6029;SDS011;3043;42.682;23.376;2022-07-01T08:13:31;12.68;;;7.78;;
6029;SDS011;3043;42.682;23.376;2022-07-01T08:15:56;12.55;;;7.90;;
6029;SDS011;3043;42.682;23.376;2022-07-01T08:18:22;11.57;;;7.97;;
6029;SDS011;3043;42.682;23.376;2022-07-01T08:20:48;12.27;;;7.18;;
6029;SDS011;3043;42.682;23.376;2022-07-01T08:23:17;14.00;;;8.18;;
6029;SDS011;3043;42.682;23.376;2022-07-01T08:25:43;11.70;;;7.10;;
6029;SDS011;3043;42.682;23.376;2022-07-01T08:28:10;14.02;;;7.35;;
6029;SDS011;3043;42.682;23.376;2022-07-01T08:30:36;13.27;;;7.82;;
6029;SDS011;3043;42.682;23.376;2022-07-01T08:33:01;12.00;;;7.63;;
6029;SDS011;3043;42.682;23.376;2022-07-01T08:35:27;10.35;;;7.15;;
6029;SDS011;3043;42.682;23.376;2022-07-01T08:37:53;11.98;;;7.45;;
6029;SDS011;3043;42.682;23.376;2022-07-01T08:40:19;14.88;;;6.70;;
6029;SDS011;3043;42.682;23.376;2022-07-01T08:42:48;11.80;;;7.70;;
6029;SDS011;3043;42.682;23.376;2022-07-01T08:45:14;13.32;;;7.13;;
6029;SDS011;3043;42.682;23.376;2022-07-01T08:47:50;13.18;;;7.72;;
6029;SDS011;3043;42.682;23.376;2022-07-01T08:50:22;11.88;;;7.03;;
6029;SDS011;3043;42.682;23.376;2022-07-01T08:52:51;10.95;;;6.30;;
6029;SDS011;3043;42.682;23.376;2022-07-01T08:55:18;9.45;;;6.35;;
6029;SDS011;3043;42.682;23.376;2022-07-01T08:57:44;10.82;;;6.03;;
6029;SDS011;3043;42.682;23.376;2022-07-01T09:00:10;11.57;;;6.45;;
6029;SDS011;3043;42.682;23.376;2022-07-01T09:05:27;9.70;;;6.60;;
6029;SDS011;3043;42.682;23.376;2022-07-01T09:08:00;10.82;;;6.00;;
6029;SDS011;3043;42.682;23.376;2022-07-01T09:10:28;9.60;;;5.70;;
6029;SDS011;3043;42.682;23.376;2022-07-01T09:12:56;10.45;;;6.40;;
6029;SDS011;3043;42.682;23.376;2022-07-01T09:15:29;7.28;;;5.88;;
6029;SDS011;3043;42.682;23.376;2022-07-01T09:18:17;11.00;;;6.20;;
6029;SDS011;3043;42.682;23.376;2022-07-01T09:20:43;11.57;;;6.00;;
6029;SDS011;3043;42.682;23.376;2022-07-01T09:23:14;11.73;;;6.57;;
6029;SDS011;3043;42.682;23.376;2022-07-01T09:25:42;9.85;;;6.07;;
6029;SDS011;3043;42.682;23.376;2022-07-01T09:28:20;11.93;;;6.97;;
6029;SDS011;3043;42.682;23.376;2022-07-01T09:30:47;10.73;;;7.13;;
6029;SDS011;3043;42.682;23.376;2022-07-01T09:35:40;10.55;;;6.40;;
6029;SDS011;3043;42.682;23.376;2022-07-01T09:38:07;10.02;;;5.70;;
6029;SDS011;3043;42.682;23.376;2022-07-01T09:40:52;8.40;;;5.43;;
6029;SDS011;3043;42.682;23.376;2022-07-01T09:43:20;7.22;;;5.60;;
6029;SDS011;3043;42.682;23.376;2022-07-01T09:45:49;12.52;;;7.40;;
6029;SDS011;3043;42.682;23.376;2022-07-01T09:48:16;8.15;;;5.30;;
6029;SDS011;3043;42.682;23.376;2022-07-01T09:50:42;8.75;;;5.45;;
6029;SDS011;3043;42.682;23.376;2022-07-01T09:53:08;9.30;;;5.32;;
6029;SDS011;3043;42.682;23.376;2022-07-01T09:55:35;11.65;;;5.85;;
6029;SDS011;3043;42.682;23.376;2022-07-01T09:58:01;8.02;;;5.25;;
6029;SDS011;3043;42.682;23.376;2022-07-01T10:00:27;10.68;;;5.75;;
6029;SDS011;3043;42.682;23.376;2022-07-01T10:02:54;11.10;;;6.32;;
6029;SDS011;3043;42.682;23.376;2022-07-01T10:05:22;10.60;;;6.20;;
6029;SDS011;3043;42.682;23.376;2022-07-01T10:08:55;8.45;;;5.50;;
6029;SDS011;3043;42.682;23.376;2022-07-01T10:13:40;14.43;;;5.43;;
6029;SDS011;3043;42.682;23.376;2022-07-01T10:16:07;7.25;;;5.20;;
6029;SDS011;3043;42.682;23.376;2022-07-01T10:18:33;11.18;;;7.28;;
6029;SDS011;3043;42.682;23.376;2022-07-01T10:21:00;11.50;;;7.13;;
6029;SDS011;3043;42.682;23.376;2022-07-01T10:23:39;9.98;;;7.07;;
6029;SDS011;3043;42.682;23.376;2022-07-01T10:26:07;11.57;;;6.07;;
6029;SDS011;3043;42.682;23.376;2022-07-01T10:31:11;8.27;;;5.65;;
6029;SDS011;3043;42.682;23.376;2022-07-01T10:39:08;9.55;;;6.40;;
6029;SDS011;3043;42.682;23.376;2022-07-01T10:44:13;10.45;;;6.32;;
6029;SDS011;3043;42.682;23.376;2022-07-01T10:46:44;11.02;;;6.43;;
6029;SDS011;3043;42.682;23.376;2022-07-01T10:49:22;9.85;;;6.00;;
6029;SDS011;3043;42.682;23.376;2022-07-01T10:52:10;7.80;;;5.10;;
6029;SDS011;3043;42.682;23.376;2022-07-01T11:02:27;7.30;;;5.13;;
6029;SDS011;3043;42.682;23.376;2022-07-01T11:04:55;8.52;;;5.28;;
6029;SDS011;3043;42.682;23.376;2022-07-01T11:07:29;11.57;;;5.68;;
6029;SDS011;3043;42.682;23.376;2022-07-01T11:09:57;10.90;;;5.78;;
6029;SDS011;3043;42.682;23.376;2022-07-01T11:12:25;8.32;;;5.68;;
6029;SDS011;3043;42.682;23.376;2022-07-01T11:14:54;8.65;;;5.40;;
6029;SDS011;3043;42.682;23.376;2022-07-01T11:17:21;6.57;;;4.90;;
6029;SDS011;3043;42.682;23.376;2022-07-01T11:19:50;8.32;;;5.75;;
6029;SDS011;3043;42.682;23.376;2022-07-01T11:22:28;8.90;;;5.95;;
6029;SDS011;3043;42.682;23.376;2022-07-01T11:24:59;8.10;;;5.50;;
6029;SDS011;3043;42.682;23.376;2022-07-01T11:27:26;7.85;;;5.43;;
6029;SDS011;3043;42.682;23.376;2022-07-01T11:29:56;9.63;;;5.22;;
6029;SDS011;3043;42.682;23.376;2022-07-01T11:32:27;10.38;;;5.40;;
6029;SDS011;3043;42.682;23.376;2022-07-01T11:34:54;9.50;;;5.80;;
6029;SDS011;3043;42.682;23.376;2022-07-01T11:37:19;6.88;;;5.50;;
6029;SDS011;3043;42.682;23.376;2022-07-01T11:40:05;7.43;;;5.30;;
6029;SDS011;3043;42.682;23.376;2022-07-01T11:42:31;9.45;;;5.40;;
6029;SDS011;3043;42.682;23.376;2022-07-01T11:44:57;13.00;;;7.30;;
6029;SDS011;3043;42.682;23.376;2022-07-01T11:47:23;9.85;;;6.32;;
6029;SDS011;3043;42.682;23.376;2022-07-01T11:49:51;8.48;;;5.60;;
6029;SDS011;3043;42.682;23.376;2022-07-01T11:52:17;8.63;;;4.88;;
6029;SDS011;3043;42.682;23.376;2022-07-01T11:54:45;7.57;;;5.32;;
6029;SDS011;3043;42.682;23.376;2022-07-01T11:57:19;7.28;;;4.80;;
6029;SDS011;3043;42.682;23.376;2022-07-01T11:59:47;7.35;;;5.18;;
6029;SDS011;3043;42.682;23.376;2022-07-01T12:02:15;7.60;;;4.82;;
6029;SDS011;3043;42.682;23.376;2022-07-01T12:04:44;7.18;;;4.82;;
6029;SDS011;3043;42.682;23.376;2022-07-01T12:07:12;7.50;;;5.03;;
6029;SDS011;3043;42.682;23.376;2022-07-01T12:09:38;6.05;;;4.53;;
6029;SDS011;3043;42.682;23.376;2022-07-01T12:12:04;6.60;;;4.88;;
6029;SDS011;3043;42.682;23.376;2022-07-01T12:14:32;6.68;;;4.90;;
6029;SDS011;3043;42.682;23.376;2022-07-01T12:17:04;7.50;;;4.78;;
6029;SDS011;3043;42.682;23.376;2022-07-01T12:22:02;7.07;;;4.78;;
6029;SDS011;3043;42.682;23.376;2022-07-01T12:24:30;8.15;;;4.88;;
6029;SDS011;3043;42.682;23.376;2022-07-01T12:29:25;7.95;;;4.13;;
6029;SDS011;3043;42.682;23.376;2022-07-01T12:31:59;5.60;;;3.65;;
6029;SDS011;3043;42.682;23.376;2022-07-01T12:34:43;7.93;;;4.03;;
6029;SDS011;3043;42.682;23.376;2022-07-01T12:37:14;6.88;;;4.07;;
6029;SDS011;3043;42.682;23.376;2022-07-01T12:39:45;9.60;;;4.70;;
6029;SDS011;3043;42.682;23.376;2022-07-01T12:44:57;9.27;;;5.28;;
6029;SDS011;3043;42.682;23.376;2022-07-01T12:55:32;8.77;;;6.10;;
6029;SDS011;3043;42.682;23.376;2022-07-01T12:58:02;8.88;;;6.20;;
6029;SDS011;3043;42.682;23.376;2022-07-01T13:00:29;9.63;;;6.43;;
6029;SDS011;3043;42.682;23.376;2022-07-01T13:02:56;7.95;;;6.07;;
6029;SDS011;3043;42.682;23.376;2022-07-01T13:05:24;10.13;;;5.93;;
6029;SDS011;3043;42.682;23.376;2022-07-01T13:07:49;10.43;;;6.13;;
6029;SDS011;3043;42.682;23.376;2022-07-01T13:10:16;11.05;;;6.28;;
6029;SDS011;3043;42.682;23.376;2022-07-01T13:12:43;11.63;;;6.45;;
6029;SDS011;3043;42.682;23.376;2022-07-01T13:15:10;7.80;;;6.05;;
6029;SDS011;3043;42.682;23.376;2022-07-01T13:17:36;8.80;;;6.18;;
6029;SDS011;3043;42.682;23.376;2022-07-01T13:20:02;10.57;;;6.15;;
6029;SDS011;3043;42.682;23.376;2022-07-01T13:22:28;7.90;;;6.20;;
6029;SDS011;3043;42.682;23.376;2022-07-01T13:24:53;9.52;;;6.05;;
6029;SDS011;3043;42.682;23.376;2022-07-01T13:27:19;9.93;;;5.75;;
6029;SDS011;3043;42.682;23.376;2022-07-01T13:29:45;6.78;;;5.28;;
6029;SDS011;3043;42.682;23.376;2022-07-01T13:32:10;7.97;;;5.47;;
6029;SDS011;3043;42.682;23.376;2022-07-01T13:34:36;7.78;;;5.57;;
6029;SDS011;3043;42.682;23.376;2022-07-01T13:37:02;8.48;;;6.13;;
6029;SDS011;3043;42.682;23.376;2022-07-01T13:39:27;7.40;;;5.45;;
6029;SDS011;3043;42.682;23.376;2022-07-01T13:41:53;9.05;;;5.93;;
6029;SDS011;3043;42.682;23.376;2022-07-01T13:44:21;8.30;;;5.80;;
6029;SDS011;3043;42.682;23.376;2022-07-01T13:46:46;7.30;;;6.03;;
6029;SDS011;3043;42.682;23.376;2022-07-01T13:49:11;8.35;;;6.25;;
6029;SDS011;3043;42.682;23.376;2022-07-01T13:51:37;9.18;;;6.35;;
6029;SDS011;3043;42.682;23.376;2022-07-01T13:54:02;7.35;;;5.85;;
6029;SDS011;3043;42.682;23.376;2022-07-01T13:56:28;9.60;;;5.93;;
6029;SDS011;3043;42.682;23.376;2022-07-01T13:58:53;8.40;;;6.03;;
6029;SDS011;3043;42.682;23.376;2022-07-01T14:01:20;9.50;;;6.20;;
6029;SDS011;3043;42.682;23.376;2022-07-01T14:03:48;8.00;;;6.13;;
6029;SDS011;3043;42.682;23.376;2022-07-01T14:06:14;8.23;;;6.00;;
6029;SDS011;3043;42.682;23.376;2022-07-01T14:08:39;8.40;;;5.95;;
6029;SDS011;3043;42.682;23.376;2022-07-01T14:11:05;9.55;;;6.18;;
6029;SDS011;3043;42.682;23.376;2022-07-01T14:13:30;7.93;;;5.78;;
6029;SDS011;3043;42.682;23.376;2022-07-01T14:15:56;13.90;;;5.75;;
6029;SDS011;3043;42.682;23.376;2022-07-01T14:18:21;8.82;;;6.05;;
6029;SDS011;3043;42.682;23.376;2022-07-01T14:20:47;8.48;;;5.82;;
6029;SDS011;3043;42.682;23.376;2022-07-01T14:23:12;9.10;;;6.10;;
6029;SDS011;3043;42.682;23.376;2022-07-01T14:25:38;8.48;;;6.13;;
6029;SDS011;3043;42.682;23.376;2022-07-01T14:28:05;7.03;;;6.07;;
6029;SDS011;3043;42.682;23.376;2022-07-01T14:30:32;10.05;;;5.93;;
6029;SDS011;3043;42.682;23.376;2022-07-01T14:32:58;8.52;;;6.32;;
6029;SDS011;3043;42.682;23.376;2022-07-01T14:35:26;7.80;;;6.20;;
6029;SDS011;3043;42.682;23.376;2022-07-01T14:37:51;9.45;;;6.75;;
6029;SDS011;3043;42.682;23.376;2022-07-01T14:40:17;6.88;;;5.82;;
6029;SDS011;3043;42.682;23.376;2022-07-01T14:42:43;9.43;;;5.90;;
6029;SDS011;3043;42.682;23.376;2022-07-01T14:45:11;8.82;;;5.50;;
6029;SDS011;3043;42.682;23.376;2022-07-01T14:47:39;10.80;;;5.80;;
6029;SDS011;3043;42.682;23.376;2022-07-01T14:50:05;9.25;;;5.88;;
6029;SDS011;3043;42.682;23.376;2022-07-01T14:52:31;8.23;;;6.03;;
6029;SDS011;3043;42.682;23.376;2022-07-01T14:54:56;8.75;;;7.45;;
6029;SDS011;3043;42.682;23.376;2022-07-01T14:57:22;8.13;;;6.25;;
6029;SDS011;3043;42.682;23.376;2022-07-01T14:59:48;10.10;;;6.22;;
6029;SDS011;3043;42.682;23.376;2022-07-01T15:02:13;11.30;;;8.13;;
6029;SDS011;3043;42.682;23.376;2022-07-01T15:04:39;7.97;;;6.65;;
6029;SDS011;3043;42.682;23.376;2022-07-01T15:07:07;6.97;;;5.70;;
6029;SDS011;3043;42.682;23.376;2022-07-01T15:09:33;7.70;;;6.30;;
6029;SDS011;3043;42.682;23.376;2022-07-01T15:11:58;8.80;;;6.30;;
6029;SDS011;3043;42.682;23.376;2022-07-01T15:14:24;8.73;;;5.93;;
6029;SDS011;3043;42.682;23.376;2022-07-01T15:16:50;10.52;;;6.25;;
6029;SDS011;3043;42.682;23.376;2022-07-01T15:19:16;9.18;;;6.32;;
6029;SDS011;3043;42.682;23.376;2022-07-01T15:21:41;8.27;;;6.22;;
6029;SDS011;3043;42.682;23.376;2022-07-01T15:24:07;8.75;;;6.18;;
6029;SDS011;3043;42.682;23.376;2022-07-01T15:26:32;7.95;;;6.40;;
6029;SDS011;3043;42.682;23.376;2022-07-01T15:28:58;8.98;;;7.15;;
6029;SDS011;3043;42.682;23.376;2022-07-01T15:31:23;10.00;;;6.30;;
6029;SDS011;3043;42.682;23.376;2022-07-01T15:33:50;10.18;;;6.60;;